Sixes, Oregon
Current Conditions -  °F | °C
As of 1:55 AM on Saturday 25 Oct 2014 (Local Time) from KOTH Reporting Station
Overcast Overcast  
Wind Chill: 55°   Ceiling: 6000
Heat Index: 55°   Visibility: 10mi
Dew Point: 55°   Wind: 3mph
Humidity: 100%   Direction: 230°SW
Pressure: 29.57"   Gusts: NA
Location:  42.82°N, 124.49°W
Report Text: KOTH 250855Z 23003KT 10SM BKN060 OVC085 13/13 A2957 RMK AO1 57017
Loading
Personal Weather Stations






























Interactive Weather Map
Tropical Storm Tracking
New forecast layout! Learn more

10-Day Weather Forecast

Advertisements
Track Severe Weather on mobile